createdAt,value
2016-10-21T00:00:15.837Z,-84
2016-10-21T00:01:15.836Z,-84
2016-10-21T00:02:16.155Z,-84
2016-10-21T00:03:15.921Z,-84
2016-10-21T00:04:15.884Z,-84
2016-10-21T00:05:15.813Z,-85
2016-10-21T00:06:15.951Z,-84
2016-10-21T00:07:15.744Z,-84
2016-10-21T00:08:15.915Z,-84
2016-10-21T00:09:16.073Z,-84
2016-10-21T00:10:15.923Z,-85
2016-10-21T00:11:15.902Z,-84
2016-10-21T00:12:15.791Z,-84
2016-10-21T00:13:15.928Z,-84
2016-10-21T00:14:15.974Z,-84
2016-10-21T00:15:15.920Z,-84
2016-10-21T00:16:15.877Z,-84
2016-10-21T00:17:15.926Z,-84
2016-10-21T00:18:16.181Z,-84
2016-10-21T00:19:15.808Z,-85
2016-10-21T00:20:15.857Z,-84
2016-10-21T00:21:15.838Z,-84
2016-10-21T00:22:15.956Z,-85
2016-10-21T00:23:15.827Z,-85
2016-10-21T00:24:15.883Z,-85
2016-10-21T00:25:15.883Z,-84
2016-10-21T00:26:15.855Z,-84
2016-10-21T00:27:15.833Z,-85
2016-10-21T00:28:15.907Z,-84
2016-10-21T00:29:16.062Z,-84
2016-10-21T00:30:15.932Z,-84
2016-10-21T00:31:15.835Z,-85
2016-10-21T00:32:16.008Z,-84
2016-10-21T00:33:15.901Z,-84
2016-10-21T00:34:16.072Z,-84
2016-10-21T00:35:16.288Z,-84
2016-10-21T00:36:15.857Z,-84
2016-10-21T00:37:15.917Z,-84
2016-10-21T00:38:15.957Z,-84
2016-10-21T00:39:15.948Z,-85
2016-10-21T00:40:15.965Z,-85
2016-10-21T00:41:16.036Z,-84
2016-10-21T00:42:15.979Z,-85
2016-10-21T00:43:15.884Z,-84
2016-10-21T00:44:15.920Z,-84
2016-10-21T00:45:15.963Z,-84
2016-10-21T00:46:16.012Z,-85
2016-10-21T00:47:15.962Z,-84
2016-10-21T00:48:15.858Z,-84
2016-10-21T00:49:16.074Z,-85
2016-10-21T00:50:16.178Z,-85
2016-10-21T00:51:16.054Z,-85
2016-10-21T00:52:16.025Z,-85
2016-10-21T00:53:15.901Z,-84
2016-10-21T00:54:15.938Z,-84
2016-10-21T00:55:15.904Z,-85
2016-10-21T00:56:16.024Z,-85
2016-10-21T00:57:16.002Z,-84
2016-10-21T00:58:16.008Z,-85
2016-10-21T00:59:16.000Z,-85
2016-10-21T01:00:15.952Z,-84
2016-10-21T01:01:15.946Z,-84
2016-10-21T01:02:15.936Z,-85
2016-10-21T01:03:16.040Z,-84
2016-10-21T01:04:16.180Z,-84
2016-10-21T01:05:16.010Z,-84
2016-10-21T01:06:16.064Z,-84
2016-10-21T01:07:16.003Z,-85
2016-10-21T01:08:15.989Z,-84
2016-10-21T01:09:15.944Z,-85
2016-10-21T01:10:15.976Z,-84
2016-10-21T01:11:16.012Z,-84
2016-10-21T01:12:16.125Z,-84
2016-10-21T01:13:16.140Z,-84
2016-10-21T01:14:16.087Z,-84
2016-10-21T01:15:16.086Z,-84
2016-10-21T01:16:16.117Z,-84
2016-10-21T01:17:16.002Z,-84
2016-10-21T01:18:15.992Z,-84
2016-10-21T01:19:16.011Z,-84
2016-10-21T01:20:16.008Z,-85
2016-10-21T01:21:16.079Z,-84
2016-10-21T01:22:16.173Z,-84
2016-10-21T01:23:16.090Z,-85
2016-10-21T01:24:16.105Z,-84
2016-10-21T01:25:16.024Z,-84
2016-10-21T01:26:15.992Z,-85
2016-10-21T01:27:16.136Z,-85
2016-10-21T01:28:16.506Z,-84
2016-10-21T01:29:16.094Z,-85
2016-10-21T01:30:16.126Z,-85
2016-10-21T01:31:16.103Z,-85
2016-10-21T01:32:16.058Z,-85
2016-10-21T01:33:16.166Z,-84
2016-10-21T01:34:16.122Z,-84
2016-10-21T01:35:16.175Z,-84
2016-10-21T01:36:16.148Z,-84
2016-10-21T01:37:16.190Z,-85
2016-10-21T01:38:16.267Z,-84
2016-10-21T01:39:16.109Z,-85
2016-10-21T01:40:16.159Z,-84
2016-10-21T01:41:16.194Z,-84
2016-10-21T01:42:16.190Z,-84
2016-10-21T01:43:16.002Z,-85
2016-10-21T01:44:16.187Z,-84
2016-10-21T01:45:16.112Z,-84
2016-10-21T01:46:16.209Z,-84
2016-10-21T01:47:16.071Z,-84
2016-10-21T01:48:16.148Z,-84
2016-10-21T01:49:16.155Z,-85
2016-10-21T01:50:16.149Z,-84
2016-10-21T01:51:16.185Z,-85
2016-10-21T01:52:16.039Z,-84
2016-10-21T01:53:16.057Z,-85
2016-10-21T01:54:16.192Z,-85
2016-10-21T01:55:16.234Z,-85
2016-10-21T01:56:16.143Z,-85
2016-10-21T01:57:16.143Z,-85
2016-10-21T01:58:16.083Z,-84
2016-10-21T01:59:16.146Z,-85
2016-10-21T02:00:16.300Z,-85
2016-10-21T02:01:16.103Z,-84
2016-10-21T02:02:16.247Z,-84
2016-10-21T02:03:16.264Z,-84
2016-10-21T02:04:16.190Z,-84
2016-10-21T02:05:16.190Z,-84
2016-10-21T02:06:16.142Z,-84
2016-10-21T02:07:16.110Z,-85
2016-10-21T02:08:16.199Z,-85
2016-10-21T02:09:16.164Z,-85
2016-10-21T02:10:16.329Z,-84
2016-10-21T02:11:16.161Z,-84
2016-10-21T02:12:16.242Z,-84
2016-10-21T02:13:16.304Z,-84
2016-10-21T02:14:16.194Z,-85
2016-10-21T02:15:16.217Z,-84
2016-10-21T02:16:16.289Z,-85
2016-10-21T02:17:16.288Z,-85
2016-10-21T02:18:16.198Z,-84
2016-10-21T02:19:16.223Z,-84
2016-10-21T02:20:16.229Z,-85
2016-10-21T02:21:16.274Z,-84
2016-10-21T02:22:16.247Z,-85
2016-10-21T02:23:16.241Z,-85
2016-10-21T02:24:16.200Z,-84
2016-10-21T02:25:16.322Z,-84
2016-10-21T02:26:16.423Z,-84
2016-10-21T02:27:16.205Z,-85
2016-10-21T02:28:16.294Z,-85
2016-10-21T02:29:16.329Z,-85
2016-10-21T02:30:16.212Z,-85
2016-10-21T02:31:16.223Z,-85
2016-10-21T02:32:16.196Z,-84
2016-10-21T02:33:16.312Z,-85
2016-10-21T02:34:16.297Z,-85
2016-10-21T02:35:16.288Z,-84
2016-10-21T02:36:16.360Z,-84
2016-10-21T02:37:16.164Z,-85
2016-10-21T02:38:16.308Z,-85
2016-10-21T02:39:16.194Z,-85
2016-10-21T02:40:16.287Z,-84
2016-10-21T02:41:16.358Z,-85
2016-10-21T02:42:16.365Z,-85
2016-10-21T02:43:16.183Z,-85
2016-10-21T02:44:16.329Z,-85
2016-10-21T02:45:16.373Z,-85
2016-10-21T02:46:16.287Z,-84
2016-10-21T02:47:16.290Z,-85
2016-10-21T02:48:16.380Z,-84
2016-10-21T02:49:16.273Z,-85
2016-10-21T02:50:16.410Z,-85
2016-10-21T02:51:16.298Z,-85
2016-10-21T02:52:16.312Z,-85
2016-10-21T02:53:16.194Z,-85
2016-10-21T02:54:16.319Z,-85
2016-10-21T02:55:16.322Z,-85
2016-10-21T02:56:16.349Z,-85
2016-10-21T02:57:16.330Z,-85
2016-10-21T02:58:16.433Z,-85
2016-10-21T02:59:16.275Z,-85
2016-10-21T03:00:16.271Z,-84
2016-10-21T03:01:16.360Z,-85
2016-10-21T03:02:16.183Z,-85
2016-10-21T03:03:16.342Z,-85
2016-10-21T03:04:16.355Z,-85
2016-10-21T03:05:16.386Z,-85
2016-10-21T03:06:16.427Z,-85
2016-10-21T03:07:16.389Z,-85
2016-10-21T03:08:16.477Z,-85
2016-10-21T03:09:16.396Z,-85
2016-10-21T03:10:16.351Z,-85
2016-10-21T03:11:16.406Z,-85
2016-10-21T03:12:16.326Z,-85
2016-10-21T03:13:16.407Z,-85
2016-10-21T03:14:16.590Z,-85
2016-10-21T03:15:16.374Z,-85
2016-10-21T03:16:16.403Z,-85
2016-10-21T03:17:16.408Z,-85
2016-10-21T03:18:16.426Z,-85
2016-10-21T03:19:16.385Z,-84
2016-10-21T03:20:16.335Z,-85
2016-10-21T03:21:16.405Z,-85
2016-10-21T03:22:16.474Z,-85
2016-10-21T03:23:16.452Z,-85
2016-10-21T03:24:16.418Z,-85
2016-10-21T03:25:16.444Z,-85
2016-10-21T03:26:16.402Z,-85
2016-10-21T03:27:16.512Z,-85
2016-10-21T03:28:16.460Z,-85
2016-10-21T03:29:16.421Z,-85
2016-10-21T03:30:16.548Z,-85
2016-10-21T03:31:16.274Z,-85
2016-10-21T03:32:16.397Z,-85
2016-10-21T03:33:16.374Z,-85
2016-10-21T03:34:16.362Z,-85
2016-10-21T03:35:16.449Z,-85
2016-10-21T03:36:16.446Z,-85
2016-10-21T03:37:16.510Z,-85
2016-10-21T03:38:16.368Z,-85
2016-10-21T03:39:16.380Z,-85
2016-10-21T03:40:16.381Z,-85
2016-10-21T03:41:16.437Z,-85
2016-10-21T03:42:16.512Z,-85
2016-10-21T03:43:16.513Z,-85
2016-10-21T03:44:16.487Z,-85
2016-10-21T03:45:17.055Z,-85
2016-10-21T03:46:16.565Z,-85
2016-10-21T03:47:16.393Z,-85
2016-10-21T03:48:16.513Z,-85
2016-10-21T03:49:16.473Z,-85
2016-10-21T03:50:16.464Z,-85
2016-10-21T03:51:16.541Z,-85
2016-10-21T03:52:16.453Z,-85
2016-10-21T03:53:16.492Z,-84
2016-10-21T03:54:16.568Z,-85
2016-10-21T03:55:16.551Z,-85
2016-10-21T03:56:16.532Z,-85
2016-10-21T03:57:16.503Z,-85
2016-10-21T03:58:16.521Z,-85
2016-10-21T03:59:16.577Z,-85
2016-10-21T04:00:16.509Z,-85
2016-10-21T04:01:16.555Z,-85
2016-10-21T04:02:16.543Z,-85
2016-10-21T04:03:16.438Z,-85
2016-10-21T04:04:16.550Z,-85
2016-10-21T04:05:16.553Z,-85
2016-10-21T04:06:16.475Z,-85
2016-10-21T04:07:16.570Z,-85
2016-10-21T04:08:16.497Z,-85
2016-10-21T04:09:16.558Z,-85
2016-10-21T04:10:16.530Z,-85
2016-10-21T04:11:16.569Z,-85
2016-10-21T04:12:16.499Z,-85
2016-10-21T04:13:16.477Z,-85
2016-10-21T04:14:16.531Z,-85
2016-10-21T04:15:16.580Z,-85
2016-10-21T04:16:16.510Z,-85
2016-10-21T04:17:16.463Z,-85
2016-10-21T04:18:16.720Z,-85
2016-10-21T04:19:16.475Z,-85
2016-10-21T04:20:16.586Z,-85
2016-10-21T04:21:16.639Z,-85
2016-10-21T04:22:16.569Z,-85
2016-10-21T04:23:16.591Z,-85
2016-10-21T04:24:16.621Z,-85
2016-10-21T04:25:16.494Z,-85
2016-10-21T04:26:16.615Z,-85
2016-10-21T04:27:16.647Z,-85
2016-10-21T04:28:16.624Z,-85
2016-10-21T04:29:16.654Z,-85
2016-10-21T04:30:16.539Z,-85
2016-10-21T04:31:16.662Z,-85
2016-10-21T04:32:16.504Z,-85
2016-10-21T04:33:16.720Z,-85
2016-10-21T04:34:16.787Z,-85
2016-10-21T04:35:16.952Z,-87
2016-10-21T04:36:19.843Z,-86
2016-10-21T04:37:16.562Z,-87
2016-10-21T04:38:16.587Z,-87
2016-10-21T04:39:16.588Z,-86
2016-10-21T04:40:16.586Z,-87
2016-10-21T04:41:16.652Z,-87
2016-10-21T04:42:16.668Z,-86
2016-10-21T04:43:16.540Z,-87
2016-10-21T04:44:16.612Z,-87
2016-10-21T04:45:16.676Z,-87
2016-10-21T04:46:16.659Z,-87
2016-10-21T04:47:16.608Z,-87
2016-10-21T04:48:16.584Z,-86
2016-10-21T04:49:16.531Z,-87
2016-10-21T04:50:16.701Z,-86
2016-10-21T04:51:16.671Z,-86
2016-10-21T04:52:16.690Z,-87
2016-10-21T04:53:16.672Z,-86
2016-10-21T04:54:16.601Z,-86
2016-10-21T04:55:16.622Z,-87
2016-10-21T04:56:16.683Z,-86
2016-10-21T04:57:16.726Z,-87
2016-10-21T04:58:16.735Z,-86
2016-10-21T04:59:16.677Z,-87
2016-10-21T05:00:16.618Z,-87
2016-10-21T05:01:16.696Z,-87
2016-10-21T05:02:16.625Z,-87
2016-10-21T05:03:16.634Z,-86
2016-10-21T05:04:16.705Z,-86
2016-10-21T05:05:16.558Z,-87
2016-10-21T05:06:16.769Z,-87
2016-10-21T05:07:16.702Z,-87
2016-10-21T05:08:16.580Z,-86
2016-10-21T05:09:16.644Z,-87
2016-10-21T05:10:16.808Z,-86
2016-10-21T05:11:16.787Z,-87
2016-10-21T05:12:16.590Z,-86
2016-10-21T05:13:16.655Z,-87
2016-10-21T05:14:16.588Z,-86
2016-10-21T05:15:16.739Z,-87
2016-10-21T05:16:16.718Z,-87
2016-10-21T05:17:16.763Z,-87
2016-10-21T05:18:16.708Z,-87
2016-10-21T05:19:16.712Z,-86
2016-10-21T05:20:16.817Z,-87
2016-10-21T05:21:16.748Z,-87
2016-10-21T05:22:16.885Z,-86
2016-10-21T05:23:16.635Z,-87
2016-10-21T05:24:16.810Z,-86
2016-10-21T05:25:16.762Z,-86
2016-10-21T05:26:16.835Z,-87
2016-10-21T05:27:16.642Z,-86
2016-10-21T05:28:16.738Z,-86
2016-10-21T05:29:16.774Z,-87
2016-10-21T05:30:16.801Z,-87
2016-10-21T05:31:16.776Z,-86
2016-10-21T05:32:16.702Z,-87
2016-10-21T05:33:16.779Z,-86
2016-10-21T05:34:16.803Z,-86
2016-10-21T05:35:16.809Z,-86
2016-10-21T05:36:16.830Z,-87
2016-10-21T05:37:16.788Z,-87
2016-10-21T05:38:17.061Z,-87
2016-10-21T05:39:16.764Z,-86
2016-10-21T05:40:16.694Z,-86
2016-10-21T05:41:16.783Z,-87
2016-10-21T05:42:16.826Z,-86
2016-10-21T05:43:16.813Z,-86
2016-10-21T05:44:16.806Z,-86
2016-10-21T05:45:16.880Z,-86
2016-10-21T05:46:16.833Z,-86
2016-10-21T05:47:16.784Z,-86
2016-10-21T05:48:16.760Z,-86
2016-10-21T05:49:16.823Z,-86
2016-10-21T05:50:16.787Z,-87
2016-10-21T05:51:16.815Z,-86
2016-10-21T05:52:16.820Z,-87
2016-10-21T05:53:16.929Z,-86
2016-10-21T05:54:16.986Z,-86
2016-10-21T05:55:16.933Z,-87
2016-10-21T05:56:16.879Z,-86
2016-10-21T05:57:16.897Z,-86
2016-10-21T05:58:16.812Z,-86
2016-10-21T05:59:16.876Z,-86
2016-10-21T06:00:16.868Z,-87
2016-10-21T06:01:16.715Z,-86
2016-10-21T06:02:16.844Z,-86
2016-10-21T06:03:16.873Z,-86
2016-10-21T06:04:16.686Z,-87
2016-10-21T06:05:16.894Z,-92
2016-10-21T06:06:16.794Z,-93
2016-10-21T06:07:16.732Z,-92
2016-10-21T06:08:16.944Z,-92
2016-10-21T06:09:16.833Z,-92
2016-10-21T06:10:16.905Z,-92
2016-10-21T06:11:16.929Z,-92
2016-10-21T06:12:16.860Z,-92
2016-10-21T06:13:16.852Z,-92
2016-10-21T06:14:16.885Z,-91
2016-10-21T06:15:16.855Z,-92
2016-10-21T06:16:16.776Z,-92
2016-10-21T06:17:16.884Z,-93
2016-10-21T06:18:17.000Z,-92
2016-10-21T06:19:16.838Z,-91
2016-10-21T06:20:16.861Z,-91
2016-10-21T06:21:16.965Z,-92
2016-10-21T06:22:16.828Z,-93
2016-10-21T06:23:16.889Z,-92
2016-10-21T06:24:16.970Z,-92
2016-10-21T06:25:16.986Z,-92
2016-10-21T06:26:16.962Z,-91
2016-10-21T06:27:16.903Z,-92
2016-10-21T06:28:17.025Z,-92
2016-10-21T06:29:16.877Z,-92
2016-10-21T06:30:16.897Z,-93
2016-10-21T06:31:16.999Z,-92
2016-10-21T06:32:16.989Z,-92
2016-10-21T06:33:16.853Z,-93
2016-10-21T06:34:16.971Z,-93
2016-10-21T06:35:16.909Z,-92
2016-10-21T06:36:16.990Z,-92
2016-10-21T06:37:16.923Z,-93
2016-10-21T06:38:16.965Z,-92
2016-10-21T06:39:16.968Z,-92
2016-10-21T06:40:16.900Z,-93
2016-10-21T06:41:16.993Z,-93
2016-10-21T06:42:17.173Z,-92
2016-10-21T06:43:16.910Z,-91
2016-10-21T06:44:16.894Z,-89
2016-10-21T06:45:16.979Z,-91
2016-10-21T06:46:16.931Z,-93
2016-10-21T06:47:17.017Z,-92
2016-10-21T06:48:17.081Z,-92
2016-10-21T06:49:17.034Z,-92
2016-10-21T06:50:16.931Z,-93
2016-10-21T06:51:16.937Z,-91
2016-10-21T06:52:17.129Z,-92
2016-10-21T06:53:17.068Z,-93
2016-10-21T06:54:17.058Z,-92
2016-10-21T06:55:17.005Z,-91
2016-10-21T06:56:16.961Z,-92
2016-10-21T06:57:17.013Z,-93
2016-10-21T06:58:17.078Z,-93
2016-10-21T06:59:17.116Z,-93
2016-10-21T07:00:17.072Z,-93
2016-10-21T07:01:17.065Z,-93
2016-10-21T07:02:17.069Z,-94
2016-10-21T07:03:16.925Z,-94
2016-10-21T07:04:16.956Z,-94
2016-10-21T07:05:17.064Z,-93
2016-10-21T07:06:17.037Z,-95
2016-10-21T07:07:16.996Z,-93
2016-10-21T07:08:17.031Z,-93
2016-10-21T07:09:17.146Z,-93
2016-10-21T07:10:17.163Z,-92
2016-10-21T07:11:17.073Z,-93
2016-10-21T07:12:17.073Z,-93
2016-10-21T07:13:17.058Z,-93
2016-10-21T07:14:17.282Z,-94
2016-10-21T07:15:17.136Z,-92
2016-10-21T07:16:17.129Z,-92
2016-10-21T07:17:17.090Z,-90
2016-10-21T07:18:17.129Z,-90
2016-10-21T07:19:17.082Z,-93
2016-10-21T07:20:17.141Z,-92
2016-10-21T07:21:17.322Z,-92
2016-10-21T07:22:17.135Z,-93
2016-10-21T07:23:17.076Z,-93
2016-10-21T07:24:17.151Z,-92
2016-10-21T07:25:17.087Z,-92
2016-10-21T07:26:17.315Z,-92
2016-10-21T07:27:17.194Z,-91
2016-10-21T07:28:17.225Z,-92
2016-10-21T07:29:17.161Z,-93
2016-10-21T07:30:17.359Z,-92
2016-10-21T07:31:17.106Z,-93
2016-10-21T07:32:17.028Z,-92
2016-10-21T07:33:17.142Z,-93
2016-10-21T07:34:17.088Z,-93
2016-10-21T07:35:17.084Z,-93
2016-10-21T07:36:17.121Z,-93
2016-10-21T07:37:17.167Z,-92
2016-10-21T07:38:17.062Z,-93
2016-10-21T07:39:17.148Z,-92
2016-10-21T07:40:17.096Z,-92
2016-10-21T07:41:17.051Z,-92
2016-10-21T07:42:17.412Z,-93
2016-10-21T07:43:17.049Z,-92
2016-10-21T07:44:17.234Z,-92
2016-10-21T07:45:17.305Z,-93
2016-10-21T07:46:17.317Z,-90
2016-10-21T07:47:17.245Z,-89
2016-10-21T07:48:17.142Z,-91
2016-10-21T07:49:17.198Z,-91
2016-10-21T07:50:17.308Z,-90
2016-10-21T07:51:17.150Z,-92
2016-10-21T07:52:17.166Z,-92
2016-10-21T07:53:17.150Z,-92
2016-10-21T07:54:17.195Z,-92
2016-10-21T07:55:17.557Z,-91
2016-10-21T07:56:17.275Z,-91
2016-10-21T07:57:17.210Z,-92
2016-10-21T07:58:17.208Z,-91
2016-10-21T07:59:17.184Z,-93
2016-10-21T08:00:17.275Z,-91
2016-10-21T08:01:17.217Z,-92
2016-10-21T08:02:17.475Z,-92
2016-10-21T08:03:17.211Z,-91
2016-10-21T08:04:17.176Z,-93
2016-10-21T08:05:17.351Z,-91
2016-10-21T08:06:17.304Z,-92
2016-10-21T08:07:17.227Z,-91
2016-10-21T08:08:17.265Z,-91
2016-10-21T08:09:17.204Z,-91
2016-10-21T08:10:17.144Z,-94
2016-10-21T08:11:17.282Z,-92
2016-10-21T08:12:17.563Z,-93
2016-10-21T08:13:17.823Z,-93
2016-10-21T08:14:17.875Z,-91
2016-10-21T08:15:18.139Z,-92
2016-10-21T08:16:23.583Z,-92
2016-10-21T08:17:35.137Z,-91
2016-10-21T08:18:17.918Z,-92
2016-10-21T08:19:17.484Z,-92
2016-10-21T08:20:17.123Z,-91
2016-10-21T08:21:17.287Z,-91
2016-10-21T08:22:17.229Z,-92
2016-10-21T08:23:17.335Z,-92
2016-10-21T08:24:17.204Z,-91
2016-10-21T08:25:17.250Z,-91
2016-10-21T08:26:17.304Z,-92
2016-10-21T08:27:17.257Z,-91
2016-10-21T08:28:17.182Z,-92
2016-10-21T08:29:17.316Z,-91
2016-10-21T08:30:17.194Z,-91
2016-10-21T08:31:17.291Z,-91
2016-10-21T08:32:17.326Z,-90
2016-10-21T08:33:17.274Z,-92
2016-10-21T08:34:17.368Z,-92
2016-10-21T08:35:17.126Z,-92
2016-10-21T08:36:17.240Z,-92
2016-10-21T08:37:17.138Z,-91
2016-10-21T08:38:17.215Z,-93
2016-10-21T08:39:17.303Z,-92
2016-10-21T08:40:18.575Z,-92
2016-10-21T08:41:17.425Z,-92
2016-10-21T08:42:17.401Z,-92
2016-10-21T08:43:17.299Z,-92
2016-10-21T08:44:17.250Z,-92
2016-10-21T08:45:17.419Z,-93
2016-10-21T08:46:17.253Z,-91
2016-10-21T08:47:17.334Z,-94
2016-10-21T08:48:17.258Z,-91
2016-10-21T08:49:17.455Z,-91
2016-10-21T08:50:17.440Z,-90
2016-10-21T08:51:17.275Z,-90
2016-10-21T08:52:17.263Z,-91
2016-10-21T08:53:18.041Z,-89
2016-10-21T08:54:17.279Z,-90
2016-10-21T08:55:17.400Z,-90
2016-10-21T08:56:17.399Z,-91
2016-10-21T08:57:17.281Z,-90
2016-10-21T08:58:17.437Z,-90
2016-10-21T08:59:17.402Z,-89
2016-10-21T09:00:17.416Z,-90
2016-10-21T09:01:17.364Z,-89
2016-10-21T09:02:17.363Z,-91
2016-10-21T09:03:17.357Z,-91
2016-10-21T09:04:17.311Z,-91
2016-10-21T09:05:17.402Z,-91
2016-10-21T09:06:19.898Z,-92
2016-10-21T09:07:17.284Z,-91
2016-10-21T09:08:17.420Z,-91
2016-10-21T09:09:17.496Z,-90
2016-10-21T09:10:17.347Z,-90
2016-10-21T09:11:17.432Z,-90
2016-10-21T09:12:17.564Z,-90
2016-10-21T09:13:17.415Z,-89
2016-10-21T09:14:17.327Z,-91
2016-10-21T09:15:17.440Z,-91
2016-10-21T09:16:17.457Z,-89
2016-10-21T09:17:17.480Z,-90
2016-10-21T09:18:17.397Z,-90
2016-10-21T09:19:17.480Z,-90
2016-10-21T09:20:17.335Z,-89
2016-10-21T09:21:17.483Z,-90
2016-10-21T09:22:17.449Z,-90
2016-10-21T09:23:17.351Z,-89
2016-10-21T09:24:17.504Z,-89
2016-10-21T09:25:17.596Z,-89
2016-10-21T09:26:17.589Z,-89
2016-10-21T09:27:17.482Z,-89
2016-10-21T09:28:17.422Z,-90
2016-10-21T09:29:17.422Z,-90
2016-10-21T09:30:17.526Z,-90
2016-10-21T09:31:17.342Z,-90
2016-10-21T09:32:17.520Z,-93
2016-10-21T09:33:17.450Z,-90
2016-10-21T09:34:18.128Z,-91
2016-10-21T09:35:17.544Z,-92
2016-10-21T09:36:17.410Z,-89
2016-10-21T09:37:17.994Z,-92
2016-10-21T09:38:17.822Z,-90
2016-10-21T09:39:17.438Z,-88
2016-10-21T09:40:17.399Z,-91
2016-10-21T09:41:18.367Z,-89
2016-10-21T09:42:18.350Z,-91
2016-10-21T09:43:18.243Z,-93
2016-10-21T09:44:19.094Z,-91
2016-10-21T09:45:17.990Z,-93
2016-10-21T09:46:18.237Z,-90
2016-10-21T09:47:17.652Z,-90
2016-10-21T09:48:17.457Z,-91
2016-10-21T09:49:18.024Z,-90
2016-10-21T09:50:19.228Z,-93
2016-10-21T09:51:17.756Z,-91
2016-10-21T09:52:17.491Z,-92
2016-10-21T09:53:17.595Z,-90
2016-10-21T09:54:17.655Z,-91
2016-10-21T09:55:17.683Z,-91
2016-10-21T09:56:17.446Z,-92
2016-10-21T09:57:17.505Z,-90
2016-10-21T09:58:17.493Z,-90
2016-10-21T09:59:17.599Z,-89
2016-10-21T10:00:17.495Z,-92
2016-10-21T10:01:19.073Z,-87
2016-10-21T10:02:17.681Z,-88
2016-10-21T10:03:17.583Z,-90
2016-10-21T10:04:17.522Z,-90
2016-10-21T10:05:17.625Z,-91
2016-10-21T10:06:17.512Z,-91
2016-10-21T10:07:17.495Z,-91
2016-10-21T10:08:17.686Z,-91
2016-10-21T10:09:17.434Z,-91
2016-10-21T10:10:17.752Z,-89
2016-10-21T10:11:17.647Z,-89
2016-10-21T10:12:17.641Z,-89
2016-10-21T10:13:17.593Z,-90
2016-10-21T10:14:17.696Z,-89
2016-10-21T10:15:17.604Z,-89
2016-10-21T10:16:17.436Z,-90
2016-10-21T10:17:17.607Z,-89
2016-10-21T10:18:17.422Z,-88
2016-10-21T10:19:18.592Z,-88
2016-10-21T10:20:17.662Z,-90
2016-10-21T10:21:17.702Z,-90
2016-10-21T10:22:17.633Z,-91
2016-10-21T10:23:17.739Z,-90
2016-10-21T10:24:17.582Z,-89
2016-10-21T10:25:17.598Z,-90
2016-10-21T10:26:17.835Z,-89
2016-10-21T10:27:17.463Z,-90
2016-10-21T10:28:17.640Z,-90
2016-10-21T10:29:17.813Z,-89
2016-10-21T10:30:17.643Z,-90
2016-10-21T10:31:17.762Z,-90
2016-10-21T10:32:17.669Z,-89
2016-10-21T10:33:17.782Z,-90
2016-10-21T10:34:17.772Z,-90
2016-10-21T10:35:17.626Z,-89
2016-10-21T10:36:17.568Z,-89
2016-10-21T10:37:17.574Z,-90
2016-10-21T10:38:17.577Z,-90
2016-10-21T10:39:17.695Z,-90
2016-10-21T10:40:17.524Z,-91
2016-10-21T10:41:17.688Z,-88
2016-10-21T10:42:17.964Z,-90
2016-10-21T10:43:17.681Z,-91
2016-10-21T10:44:17.601Z,-90
2016-10-21T10:45:17.716Z,-91
2016-10-21T10:46:17.628Z,-90
2016-10-21T10:47:18.726Z,-90
2016-10-21T10:48:17.792Z,-89
2016-10-21T10:49:18.902Z,-91
2016-10-21T10:50:17.684Z,-90
2016-10-21T10:51:17.789Z,-92
2016-10-21T10:52:17.717Z,-90
2016-10-21T10:53:21.374Z,-92
2016-10-21T10:54:21.351Z,-90
2016-10-21T10:55:17.779Z,-91
2016-10-21T10:56:17.824Z,-90
2016-10-21T10:57:17.759Z,-89
2016-10-21T10:58:17.890Z,-90
2016-10-21T10:59:17.648Z,-90
2016-10-21T11:00:17.744Z,-90
2016-10-21T11:01:17.712Z,-90
2016-10-21T11:02:17.748Z,-90
2016-10-21T11:03:17.665Z,-90
2016-10-21T11:04:17.727Z,-90
2016-10-21T11:05:17.713Z,-90
2016-10-21T11:06:17.792Z,-90
2016-10-21T11:07:17.767Z,-90
2016-10-21T11:08:17.679Z,-91
2016-10-21T11:09:17.671Z,-91
2016-10-21T11:10:17.781Z,-90
2016-10-21T11:11:17.821Z,-92
2016-10-21T11:12:17.785Z,-92
2016-10-21T11:13:17.755Z,-92
2016-10-21T11:14:17.889Z,-91
2016-10-21T11:15:17.802Z,-92
2016-10-21T11:16:17.823Z,-92
2016-10-21T11:17:17.831Z,-93
2016-10-21T11:18:17.856Z,-92
2016-10-21T11:19:18.130Z,-90
2016-10-21T11:20:17.867Z,-91
2016-10-21T11:21:17.899Z,-93
2016-10-21T11:22:17.797Z,-91
2016-10-21T11:23:17.848Z,-90
2016-10-21T11:24:17.814Z,-91
2016-10-21T11:25:17.888Z,-91
2016-10-21T11:26:17.932Z,-90
2016-10-21T11:27:17.814Z,-91
2016-10-21T11:28:17.885Z,-91
2016-10-21T11:29:17.956Z,-90
2016-10-21T11:30:17.907Z,-91
2016-10-21T11:31:17.725Z,-92
2016-10-21T11:32:17.901Z,-91
2016-10-21T11:33:17.882Z,-89
2016-10-21T11:34:17.966Z,-90
2016-10-21T11:35:17.889Z,-88
2016-10-21T11:36:17.824Z,-87
2016-10-21T11:37:17.785Z,-88
2016-10-21T11:38:17.794Z,-88
2016-10-21T11:39:17.875Z,-88
2016-10-21T11:40:18.296Z,-88
2016-10-21T11:41:17.918Z,-89
2016-10-21T11:42:17.949Z,-88
2016-10-21T11:43:17.898Z,-86
2016-10-21T11:44:18.209Z,-86
2016-10-21T11:45:18.204Z,-86
2016-10-21T11:46:18.159Z,-87
2016-10-21T11:47:24.041Z,-86
2016-10-21T11:48:17.896Z,-87
2016-10-21T11:49:17.948Z,-87
2016-10-21T11:50:17.953Z,-89
2016-10-21T11:51:17.899Z,-87
2016-10-21T11:52:17.827Z,-87
2016-10-21T11:53:17.883Z,-86
2016-10-21T11:54:17.809Z,-89
2016-10-21T11:55:17.863Z,-91
2016-10-21T11:56:17.833Z,-87
2016-10-21T11:57:17.951Z,-88
2016-10-21T11:58:17.801Z,-92
2016-10-21T11:59:17.844Z,-89
2016-10-21T12:00:17.901Z,-89
2016-10-21T12:01:17.976Z,-86
2016-10-21T12:02:17.911Z,-90
2016-10-21T12:03:17.852Z,-90
2016-10-21T12:04:18.017Z,-89
2016-10-21T12:05:18.007Z,-89
2016-10-21T12:06:17.911Z,-87
2016-10-21T12:07:17.811Z,-87
2016-10-21T12:08:17.847Z,-89
2016-10-21T12:09:17.995Z,-91
2016-10-21T12:10:17.936Z,-91
2016-10-21T12:11:17.830Z,-92
2016-10-21T12:12:17.939Z,-95
2016-10-21T12:13:17.832Z,-94
2016-10-21T12:14:17.797Z,-89
2016-10-21T12:15:17.896Z,-90
2016-10-21T12:16:17.907Z,-89
2016-10-21T12:17:17.912Z,-89
2016-10-21T12:18:18.095Z,-94
2016-10-21T12:19:17.909Z,-89
2016-10-21T12:20:17.975Z,-87
2016-10-21T12:21:17.833Z,-94
2016-10-21T12:22:17.943Z,-92
2016-10-21T12:23:18.024Z,-92
2016-10-21T12:24:18.012Z,-92
2016-10-21T12:25:17.929Z,-92
2016-10-21T12:26:18.001Z,-92
2016-10-21T12:27:17.959Z,-89
2016-10-21T12:28:22.975Z,-94
2016-10-21T12:29:20.764Z,-91
2016-10-21T12:30:17.962Z,-92
2016-10-21T12:31:18.114Z,-91
2016-10-21T12:32:18.190Z,-90
2016-10-21T12:33:17.980Z,-93
2016-10-21T12:34:18.139Z,-91
2016-10-21T12:35:18.053Z,-94
2016-10-21T12:36:18.846Z,-93
2016-10-21T12:37:18.593Z,-92
2016-10-21T12:38:18.048Z,-95
2016-10-21T12:39:18.059Z,-93
2016-10-21T12:40:18.011Z,-94
2016-10-21T12:41:17.978Z,-93
2016-10-21T12:42:21.591Z,-95
2016-10-21T12:43:18.125Z,-91
2016-10-21T12:44:17.986Z,-90
2016-10-21T12:45:18.116Z,-88
2016-10-21T12:46:18.257Z,-94
2016-10-21T12:47:18.087Z,-96
2016-10-21T12:48:18.058Z,-96
2016-10-21T12:49:18.031Z,-92
2016-10-21T12:50:18.031Z,-91
2016-10-21T12:51:18.063Z,-88
2016-10-21T12:52:17.946Z,-91
2016-10-21T12:53:18.054Z,-91
2016-10-21T12:54:17.882Z,-90
2016-10-21T12:55:18.452Z,-90
2016-10-21T12:56:18.243Z,-90
2016-10-21T12:57:18.038Z,-90
2016-10-21T12:58:18.112Z,-91
2016-10-21T12:59:18.805Z,-90
2016-10-21T13:00:18.177Z,-90
2016-10-21T13:01:18.253Z,-90
2016-10-21T13:02:18.051Z,-90
2016-10-21T13:03:18.235Z,-90
2016-10-21T13:04:18.881Z,-90
2016-10-21T13:05:18.169Z,-90
2016-10-21T13:06:18.011Z,-90
2016-10-21T13:07:18.028Z,-90
2016-10-21T13:08:18.779Z,-90
2016-10-21T13:09:18.325Z,-90
2016-10-21T13:10:20.180Z,-90
2016-10-21T13:11:18.142Z,-89
2016-10-21T13:12:18.599Z,-90
2016-10-21T13:13:19.217Z,-90
2016-10-21T13:14:18.213Z,-90
2016-10-21T13:15:19.142Z,-90
2016-10-21T13:16:18.461Z,-90
2016-10-21T13:17:18.194Z,-90
2016-10-21T13:18:18.365Z,-90
2016-10-21T13:19:19.049Z,-90
2016-10-21T13:20:18.271Z,-90
2016-10-21T13:21:18.422Z,-90
2016-10-21T13:22:18.156Z,-91
2016-10-21T13:23:18.398Z,-90
2016-10-21T13:24:20.398Z,-90
2016-10-21T13:25:19.367Z,-90
2016-10-21T13:26:18.457Z,-90
2016-10-21T13:27:22.119Z,-92
2016-10-21T13:28:18.169Z,-91
2016-10-21T13:29:18.357Z,-92
2016-10-21T13:30:18.463Z,-91
2016-10-21T13:31:18.362Z,-93
2016-10-21T13:32:18.460Z,-91
2016-10-21T13:33:18.573Z,-91
2016-10-21T13:34:18.292Z,-92
2016-10-21T13:35:18.400Z,-92
2016-10-21T13:36:18.330Z,-91
2016-10-21T13:37:18.378Z,-92
2016-10-21T13:38:18.404Z,-93
2016-10-21T13:39:18.262Z,-93
2016-10-21T13:40:18.824Z,-93
2016-10-21T13:41:19.092Z,-94
2016-10-21T13:42:18.323Z,-95
2016-10-21T13:43:18.452Z,-95
2016-10-21T13:44:18.271Z,-94
2016-10-21T13:45:18.985Z,-95
2016-10-21T13:46:18.960Z,-94